sensor_id;sensor_type;location;lat;lon;timestamp;P1;durP1;ratioP1;P2;durP2;ratioP2
14748;SDS011;7466;53.574;9.976;2022-11-18T00:01:14;26.97;;;19.57;;
14748;SDS011;7466;53.574;9.976;2022-11-18T00:03:42;27.60;;;19.60;;
14748;SDS011;7466;53.574;9.976;2022-11-18T00:06:13;26.93;;;18.97;;
14748;SDS011;7466;53.574;9.976;2022-11-18T00:08:42;27.23;;;19.73;;
14748;SDS011;7466;53.574;9.976;2022-11-18T00:11:10;22.73;;;17.33;;
14748;SDS011;7466;53.574;9.976;2022-11-18T00:13:59;25.80;;;18.53;;
14748;SDS011;7466;53.574;9.976;2022-11-18T00:16:43;26.37;;;18.67;;
14748;SDS011;7466;53.574;9.976;2022-11-18T00:19:10;26.33;;;19.40;;
14748;SDS011;7466;53.574;9.976;2022-11-18T00:21:37;25.13;;;19.30;;
14748;SDS011;7466;53.574;9.976;2022-11-18T00:24:04;27.90;;;19.70;;
14748;SDS011;7466;53.574;9.976;2022-11-18T00:26:31;25.97;;;18.97;;
14748;SDS011;7466;53.574;9.976;2022-11-18T00:28:59;29.27;;;20.43;;
14748;SDS011;7466;53.574;9.976;2022-11-18T00:31:25;30.00;;;20.63;;
14748;SDS011;7466;53.574;9.976;2022-11-18T00:33:52;28.47;;;20.40;;
14748;SDS011;7466;53.574;9.976;2022-11-18T00:36:19;29.03;;;20.57;;
14748;SDS011;7466;53.574;9.976;2022-11-18T00:38:46;29.60;;;20.53;;
14748;SDS011;7466;53.574;9.976;2022-11-18T00:41:13;28.83;;;20.10;;
14748;SDS011;7466;53.574;9.976;2022-11-18T00:43:41;30.47;;;20.97;;
14748;SDS011;7466;53.574;9.976;2022-11-18T00:46:08;29.47;;;19.83;;
14748;SDS011;7466;53.574;9.976;2022-11-18T00:48:37;28.37;;;19.57;;
14748;SDS011;7466;53.574;9.976;2022-11-18T00:51:08;28.73;;;20.60;;
14748;SDS011;7466;53.574;9.976;2022-11-18T00:53:36;30.07;;;20.83;;
14748;SDS011;7466;53.574;9.976;2022-11-18T00:56:03;29.23;;;20.97;;
14748;SDS011;7466;53.574;9.976;2022-11-18T00:58:30;31.50;;;21.07;;
14748;SDS011;7466;53.574;9.976;2022-11-18T01:00:57;30.73;;;21.43;;
14748;SDS011;7466;53.574;9.976;2022-11-18T01:03:26;31.87;;;20.93;;
14748;SDS011;7466;53.574;9.976;2022-11-18T01:05:53;31.60;;;22.10;;
14748;SDS011;7466;53.574;9.976;2022-11-18T01:08:20;34.70;;;21.83;;
14748;SDS011;7466;53.574;9.976;2022-11-18T01:10:47;32.20;;;21.83;;
14748;SDS011;7466;53.574;9.976;2022-11-18T01:13:17;34.00;;;21.63;;
14748;SDS011;7466;53.574;9.976;2022-11-18T01:15:44;31.80;;;21.90;;
14748;SDS011;7466;53.574;9.976;2022-11-18T01:18:12;33.40;;;23.07;;
14748;SDS011;7466;53.574;9.976;2022-11-18T01:20:40;33.00;;;22.17;;
14748;SDS011;7466;53.574;9.976;2022-11-18T01:23:08;33.90;;;22.03;;
14748;SDS011;7466;53.574;9.976;2022-11-18T01:25:35;32.53;;;22.73;;
14748;SDS011;7466;53.574;9.976;2022-11-18T01:28:02;33.03;;;22.30;;
14748;SDS011;7466;53.574;9.976;2022-11-18T01:30:31;33.97;;;21.67;;
14748;SDS011;7466;53.574;9.976;2022-11-18T01:32:59;37.43;;;23.57;;
14748;SDS011;7466;53.574;9.976;2022-11-18T01:35:26;35.93;;;24.50;;
14748;SDS011;7466;53.574;9.976;2022-11-18T01:37:54;35.20;;;24.43;;
14748;SDS011;7466;53.574;9.976;2022-11-18T01:40:21;35.93;;;23.57;;
14748;SDS011;7466;53.574;9.976;2022-11-18T01:42:48;36.97;;;24.93;;
14748;SDS011;7466;53.574;9.976;2022-11-18T01:45:19;34.90;;;23.40;;
14748;SDS011;7466;53.574;9.976;2022-11-18T01:47:52;32.90;;;22.30;;
14748;SDS011;7466;53.574;9.976;2022-11-18T01:50:24;34.50;;;22.60;;
14748;SDS011;7466;53.574;9.976;2022-11-18T01:52:51;34.17;;;22.43;;
14748;SDS011;7466;53.574;9.976;2022-11-18T01:55:25;37.50;;;25.10;;
14748;SDS011;7466;53.574;9.976;2022-11-18T01:57:56;32.73;;;21.97;;
14748;SDS011;7466;53.574;9.976;2022-11-18T02:00:27;39.00;;;25.80;;
14748;SDS011;7466;53.574;9.976;2022-11-18T02:02:53;35.60;;;23.17;;
14748;SDS011;7466;53.574;9.976;2022-11-18T02:05:21;35.93;;;23.60;;
14748;SDS011;7466;53.574;9.976;2022-11-18T02:07:50;36.83;;;25.07;;
14748;SDS011;7466;53.574;9.976;2022-11-18T02:10:19;38.20;;;24.67;;
14748;SDS011;7466;53.574;9.976;2022-11-18T02:12:48;35.93;;;25.00;;
14748;SDS011;7466;53.574;9.976;2022-11-18T02:15:16;38.67;;;25.93;;
14748;SDS011;7466;53.574;9.976;2022-11-18T02:17:48;39.63;;;26.60;;
14748;SDS011;7466;53.574;9.976;2022-11-18T02:20:23;37.77;;;26.17;;
14748;SDS011;7466;53.574;9.976;2022-11-18T02:26:15;41.63;;;27.47;;
14748;SDS011;7466;53.574;9.976;2022-11-18T02:29:09;37.00;;;23.57;;
14748;SDS011;7466;53.574;9.976;2022-11-18T02:31:40;41.60;;;28.07;;
14748;SDS011;7466;53.574;9.976;2022-11-18T02:34:14;43.73;;;27.47;;
14748;SDS011;7466;53.574;9.976;2022-11-18T02:36:48;43.33;;;28.87;;
14748;SDS011;7466;53.574;9.976;2022-11-18T02:39:19;44.80;;;28.77;;
14748;SDS011;7466;53.574;9.976;2022-11-18T02:41:49;49.67;;;29.57;;
14748;SDS011;7466;53.574;9.976;2022-11-18T02:44:22;45.57;;;27.97;;
14748;SDS011;7466;53.574;9.976;2022-11-18T02:46:52;44.40;;;28.97;;
14748;SDS011;7466;53.574;9.976;2022-11-18T02:49:24;45.33;;;30.40;;
14748;SDS011;7466;53.574;9.976;2022-11-18T02:51:56;47.70;;;30.43;;
14748;SDS011;7466;53.574;9.976;2022-11-18T02:54:24;49.23;;;30.60;;
14748;SDS011;7466;53.574;9.976;2022-11-18T02:56:52;47.30;;;29.90;;
14748;SDS011;7466;53.574;9.976;2022-11-18T02:59:19;49.30;;;29.60;;
14748;SDS011;7466;53.574;9.976;2022-11-18T03:01:47;43.60;;;27.67;;
14748;SDS011;7466;53.574;9.976;2022-11-18T03:04:14;42.83;;;27.90;;
14748;SDS011;7466;53.574;9.976;2022-11-18T03:06:42;43.20;;;27.53;;
14748;SDS011;7466;53.574;9.976;2022-11-18T03:09:16;40.57;;;27.93;;
14748;SDS011;7466;53.574;9.976;2022-11-18T03:11:48;36.53;;;22.33;;
14748;SDS011;7466;53.574;9.976;2022-11-18T03:14:23;37.03;;;25.93;;
14748;SDS011;7466;53.574;9.976;2022-11-18T03:16:58;46.23;;;29.63;;
14748;SDS011;7466;53.574;9.976;2022-11-18T03:19:34;38.60;;;25.70;;
14748;SDS011;7466;53.574;9.976;2022-11-18T03:22:12;39.53;;;26.50;;
14748;SDS011;7466;53.574;9.976;2022-11-18T03:24:46;38.27;;;26.80;;
14748;SDS011;7466;53.574;9.976;2022-11-18T03:27:20;43.27;;;28.67;;
14748;SDS011;7466;53.574;9.976;2022-11-18T03:29:53;41.53;;;27.90;;
14748;SDS011;7466;53.574;9.976;2022-11-18T03:32:25;41.43;;;27.40;;
14748;SDS011;7466;53.574;9.976;2022-11-18T03:34:54;39.07;;;27.03;;
14748;SDS011;7466;53.574;9.976;2022-11-18T03:37:25;39.03;;;26.00;;
14748;SDS011;7466;53.574;9.976;2022-11-18T03:39:55;35.33;;;24.93;;
14748;SDS011;7466;53.574;9.976;2022-11-18T03:42:26;35.53;;;25.90;;
14748;SDS011;7466;53.574;9.976;2022-11-18T03:44:59;35.07;;;24.27;;
14748;SDS011;7466;53.574;9.976;2022-11-18T03:47:31;38.90;;;26.30;;
14748;SDS011;7466;53.574;9.976;2022-11-18T03:50:01;38.47;;;25.53;;
14748;SDS011;7466;53.574;9.976;2022-11-18T03:52:33;37.90;;;26.63;;
14748;SDS011;7466;53.574;9.976;2022-11-18T03:55:03;36.67;;;26.03;;
14748;SDS011;7466;53.574;9.976;2022-11-18T03:57:37;34.57;;;24.47;;
14748;SDS011;7466;53.574;9.976;2022-11-18T04:00:10;36.43;;;26.23;;
14748;SDS011;7466;53.574;9.976;2022-11-18T04:02:39;35.77;;;25.53;;
14748;SDS011;7466;53.574;9.976;2022-11-18T04:05:07;39.47;;;26.23;;
14748;SDS011;7466;53.574;9.976;2022-11-18T04:07:38;33.80;;;24.37;;
14748;SDS011;7466;53.574;9.976;2022-11-18T04:10:10;37.97;;;25.40;;
14748;SDS011;7466;53.574;9.976;2022-11-18T04:12:42;37.33;;;26.87;;
14748;SDS011;7466;53.574;9.976;2022-11-18T04:15:13;35.93;;;25.07;;
14748;SDS011;7466;53.574;9.976;2022-11-18T04:17:40;37.33;;;26.13;;
14748;SDS011;7466;53.574;9.976;2022-11-18T04:20:08;33.90;;;24.07;;
14748;SDS011;7466;53.574;9.976;2022-11-18T04:22:39;35.10;;;25.17;;
14748;SDS011;7466;53.574;9.976;2022-11-18T04:25:06;35.80;;;24.83;;
14748;SDS011;7466;53.574;9.976;2022-11-18T04:27:33;33.57;;;24.73;;
14748;SDS011;7466;53.574;9.976;2022-11-18T04:30:00;34.30;;;25.03;;
14748;SDS011;7466;53.574;9.976;2022-11-18T04:32:28;36.83;;;25.40;;
14748;SDS011;7466;53.574;9.976;2022-11-18T04:34:55;38.07;;;26.97;;
14748;SDS011;7466;53.574;9.976;2022-11-18T04:37:22;35.33;;;25.13;;
14748;SDS011;7466;53.574;9.976;2022-11-18T04:39:48;36.80;;;27.07;;
14748;SDS011;7466;53.574;9.976;2022-11-18T04:42:15;38.30;;;26.17;;
14748;SDS011;7466;53.574;9.976;2022-11-18T04:44:42;36.03;;;26.27;;
14748;SDS011;7466;53.574;9.976;2022-11-18T04:47:08;38.37;;;27.60;;
14748;SDS011;7466;53.574;9.976;2022-11-18T04:49:36;38.20;;;27.43;;
14748;SDS011;7466;53.574;9.976;2022-11-18T04:52:03;35.57;;;25.60;;
14748;SDS011;7466;53.574;9.976;2022-11-18T04:54:30;42.20;;;26.63;;
14748;SDS011;7466;53.574;9.976;2022-11-18T04:56:57;36.57;;;26.33;;
14748;SDS011;7466;53.574;9.976;2022-11-18T04:59:25;37.17;;;26.23;;
14748;SDS011;7466;53.574;9.976;2022-11-18T05:01:53;38.47;;;27.63;;
14748;SDS011;7466;53.574;9.976;2022-11-18T05:04:21;35.43;;;25.97;;
14748;SDS011;7466;53.574;9.976;2022-11-18T05:06:50;34.43;;;24.60;;
14748;SDS011;7466;53.574;9.976;2022-11-18T05:09:17;36.20;;;26.30;;
14748;SDS011;7466;53.574;9.976;2022-11-18T05:11:44;34.57;;;25.03;;
14748;SDS011;7466;53.574;9.976;2022-11-18T05:14:29;38.50;;;25.50;;
14748;SDS011;7466;53.574;9.976;2022-11-18T05:16:57;37.83;;;28.07;;
14748;SDS011;7466;53.574;9.976;2022-11-18T05:19:25;40.73;;;28.97;;
14748;SDS011;7466;53.574;9.976;2022-11-18T05:21:53;40.07;;;28.67;;
14748;SDS011;7466;53.574;9.976;2022-11-18T05:24:19;44.47;;;30.07;;
14748;SDS011;7466;53.574;9.976;2022-11-18T05:26:48;39.10;;;27.90;;
14748;SDS011;7466;53.574;9.976;2022-11-18T05:29:15;46.13;;;28.27;;
14748;SDS011;7466;53.574;9.976;2022-11-18T05:31:43;41.27;;;28.63;;
14748;SDS011;7466;53.574;9.976;2022-11-18T05:34:09;39.93;;;27.77;;
14748;SDS011;7466;53.574;9.976;2022-11-18T05:36:36;41.03;;;28.00;;
14748;SDS011;7466;53.574;9.976;2022-11-18T05:39:04;40.63;;;29.07;;
14748;SDS011;7466;53.574;9.976;2022-11-18T05:41:31;39.57;;;27.80;;
14748;SDS011;7466;53.574;9.976;2022-11-18T05:44:16;40.77;;;28.40;;
14748;SDS011;7466;53.574;9.976;2022-11-18T05:46:42;41.10;;;28.30;;
14748;SDS011;7466;53.574;9.976;2022-11-18T05:49:09;36.80;;;26.33;;
14748;SDS011;7466;53.574;9.976;2022-11-18T05:51:36;42.10;;;28.00;;
14748;SDS011;7466;53.574;9.976;2022-11-18T05:54:03;42.07;;;28.83;;
14748;SDS011;7466;53.574;9.976;2022-11-18T05:56:34;40.37;;;28.30;;
14748;SDS011;7466;53.574;9.976;2022-11-18T05:59:02;43.97;;;29.43;;
14748;SDS011;7466;53.574;9.976;2022-11-18T06:01:29;36.83;;;23.67;;
14748;SDS011;7466;53.574;9.976;2022-11-18T06:04:00;42.43;;;27.97;;
14748;SDS011;7466;53.574;9.976;2022-11-18T06:06:29;41.33;;;29.67;;
14748;SDS011;7466;53.574;9.976;2022-11-18T06:08:57;40.17;;;27.57;;
14748;SDS011;7466;53.574;9.976;2022-11-18T06:11:28;38.87;;;27.73;;
14748;SDS011;7466;53.574;9.976;2022-11-18T06:13:59;39.80;;;28.10;;
14748;SDS011;7466;53.574;9.976;2022-11-18T06:16:30;39.93;;;28.40;;
14748;SDS011;7466;53.574;9.976;2022-11-18T06:19:00;37.27;;;26.17;;
14748;SDS011;7466;53.574;9.976;2022-11-18T06:21:27;42.70;;;30.03;;
14748;SDS011;7466;53.574;9.976;2022-11-18T06:23:55;48.87;;;30.37;;
14748;SDS011;7466;53.574;9.976;2022-11-18T06:26:22;42.67;;;28.27;;
14748;SDS011;7466;53.574;9.976;2022-11-18T06:28:50;46.43;;;29.87;;
14748;SDS011;7466;53.574;9.976;2022-11-18T06:31:16;42.30;;;29.53;;
14748;SDS011;7466;53.574;9.976;2022-11-18T06:33:43;44.23;;;29.27;;
14748;SDS011;7466;53.574;9.976;2022-11-18T06:36:10;42.97;;;29.33;;
14748;SDS011;7466;53.574;9.976;2022-11-18T06:38:37;43.10;;;29.23;;
14748;SDS011;7466;53.574;9.976;2022-11-18T06:41:04;39.47;;;28.43;;
14748;SDS011;7466;53.574;9.976;2022-11-18T06:43:31;42.33;;;28.83;;
14748;SDS011;7466;53.574;9.976;2022-11-18T06:46:07;41.83;;;29.10;;
14748;SDS011;7466;53.574;9.976;2022-11-18T06:48:53;41.50;;;28.93;;
14748;SDS011;7466;53.574;9.976;2022-11-18T06:51:20;39.73;;;29.00;;
14748;SDS011;7466;53.574;9.976;2022-11-18T06:53:47;43.43;;;29.93;;
14748;SDS011;7466;53.574;9.976;2022-11-18T06:56:15;42.77;;;28.47;;
14748;SDS011;7466;53.574;9.976;2022-11-18T06:58:42;45.30;;;29.93;;
14748;SDS011;7466;53.574;9.976;2022-11-18T07:01:12;42.13;;;29.13;;
14748;SDS011;7466;53.574;9.976;2022-11-18T07:03:40;37.50;;;25.83;;
14748;SDS011;7466;53.574;9.976;2022-11-18T07:06:08;40.57;;;28.33;;
14748;SDS011;7466;53.574;9.976;2022-11-18T07:08:35;42.27;;;26.57;;
14748;SDS011;7466;53.574;9.976;2022-11-18T07:11:03;43.97;;;30.23;;
14748;SDS011;7466;53.574;9.976;2022-11-18T07:13:31;44.83;;;29.20;;
14748;SDS011;7466;53.574;9.976;2022-11-18T07:16:00;41.97;;;27.00;;
14748;SDS011;7466;53.574;9.976;2022-11-18T07:18:30;44.00;;;30.03;;
14748;SDS011;7466;53.574;9.976;2022-11-18T07:20:59;43.63;;;30.17;;
14748;SDS011;7466;53.574;9.976;2022-11-18T07:23:27;43.43;;;28.93;;
14748;SDS011;7466;53.574;9.976;2022-11-18T07:25:55;45.97;;;29.60;;
14748;SDS011;7466;53.574;9.976;2022-11-18T07:28:21;42.20;;;28.83;;
14748;SDS011;7466;53.574;9.976;2022-11-18T07:30:48;40.80;;;29.37;;
14748;SDS011;7466;53.574;9.976;2022-11-18T07:33:15;39.83;;;28.23;;
14748;SDS011;7466;53.574;9.976;2022-11-18T07:35:43;39.47;;;26.23;;
14748;SDS011;7466;53.574;9.976;2022-11-18T07:38:10;39.37;;;27.80;;
14748;SDS011;7466;53.574;9.976;2022-11-18T07:40:37;36.30;;;27.40;;
14748;SDS011;7466;53.574;9.976;2022-11-18T07:43:03;37.90;;;27.53;;
14748;SDS011;7466;53.574;9.976;2022-11-18T07:45:31;38.70;;;27.03;;
14748;SDS011;7466;53.574;9.976;2022-11-18T07:47:58;38.53;;;25.63;;
14748;SDS011;7466;53.574;9.976;2022-11-18T07:50:24;36.30;;;26.43;;
14748;SDS011;7466;53.574;9.976;2022-11-18T07:52:55;35.67;;;25.63;;
14748;SDS011;7466;53.574;9.976;2022-11-18T07:55:21;34.03;;;24.77;;
14748;SDS011;7466;53.574;9.976;2022-11-18T07:57:48;32.77;;;24.80;;
14748;SDS011;7466;53.574;9.976;2022-11-18T08:00:15;32.80;;;25.40;;
14748;SDS011;7466;53.574;9.976;2022-11-18T08:02:43;33.87;;;22.37;;
14748;SDS011;7466;53.574;9.976;2022-11-18T08:05:09;30.80;;;23.53;;
14748;SDS011;7466;53.574;9.976;2022-11-18T08:07:36;31.80;;;24.73;;
14748;SDS011;7466;53.574;9.976;2022-11-18T08:10:05;27.53;;;21.73;;
14748;SDS011;7466;53.574;9.976;2022-11-18T08:12:32;27.27;;;21.00;;
14748;SDS011;7466;53.574;9.976;2022-11-18T08:14:59;27.87;;;22.23;;
14748;SDS011;7466;53.574;9.976;2022-11-18T08:17:25;24.50;;;20.17;;
14748;SDS011;7466;53.574;9.976;2022-11-18T08:19:52;27.17;;;21.13;;
14748;SDS011;7466;53.574;9.976;2022-11-18T08:22:19;26.17;;;21.47;;
14748;SDS011;7466;53.574;9.976;2022-11-18T08:24:45;25.83;;;19.73;;
14748;SDS011;7466;53.574;9.976;2022-11-18T08:27:14;27.67;;;21.77;;
14748;SDS011;7466;53.574;9.976;2022-11-18T08:29:40;27.93;;;21.73;;
14748;SDS011;7466;53.574;9.976;2022-11-18T08:32:07;25.90;;;21.10;;
14748;SDS011;7466;53.574;9.976;2022-11-18T08:34:34;24.33;;;20.00;;
14748;SDS011;7466;53.574;9.976;2022-11-18T08:37:01;23.00;;;20.07;;
14748;SDS011;7466;53.574;9.976;2022-11-18T08:39:27;26.10;;;20.53;;
14748;SDS011;7466;53.574;9.976;2022-11-18T08:41:56;24.60;;;20.50;;
14748;SDS011;7466;53.574;9.976;2022-11-18T08:44:25;26.33;;;19.50;;
14748;SDS011;7466;53.574;9.976;2022-11-18T08:46:51;24.10;;;20.03;;
14748;SDS011;7466;53.574;9.976;2022-11-18T08:49:18;24.13;;;19.83;;
14748;SDS011;7466;53.574;9.976;2022-11-18T08:51:45;24.33;;;19.63;;
14748;SDS011;7466;53.574;9.976;2022-11-18T08:54:12;23.67;;;19.73;;
14748;SDS011;7466;53.574;9.976;2022-11-18T08:56:39;23.87;;;20.13;;
14748;SDS011;7466;53.574;9.976;2022-11-18T08:59:06;25.70;;;20.30;;
14748;SDS011;7466;53.574;9.976;2022-11-18T09:01:35;23.23;;;20.23;;
14748;SDS011;7466;53.574;9.976;2022-11-18T09:04:02;22.83;;;19.43;;
14748;SDS011;7466;53.574;9.976;2022-11-18T09:06:29;23.70;;;18.67;;
14748;SDS011;7466;53.574;9.976;2022-11-18T09:08:56;23.17;;;19.00;;
14748;SDS011;7466;53.574;9.976;2022-11-18T09:11:23;21.27;;;17.60;;
14748;SDS011;7466;53.574;9.976;2022-11-18T09:13:52;21.97;;;18.20;;
14748;SDS011;7466;53.574;9.976;2022-11-18T09:16:20;25.30;;;20.20;;
14748;SDS011;7466;53.574;9.976;2022-11-18T09:18:48;21.60;;;18.53;;
14748;SDS011;7466;53.574;9.976;2022-11-18T09:21:16;21.10;;;17.23;;
14748;SDS011;7466;53.574;9.976;2022-11-18T09:23:44;20.03;;;17.00;;
14748;SDS011;7466;53.574;9.976;2022-11-18T09:26:12;19.37;;;17.27;;
14748;SDS011;7466;53.574;9.976;2022-11-18T09:28:41;20.00;;;17.07;;
14748;SDS011;7466;53.574;9.976;2022-11-18T09:31:08;19.13;;;17.07;;
14748;SDS011;7466;53.574;9.976;2022-11-18T09:33:37;19.87;;;17.53;;
14748;SDS011;7466;53.574;9.976;2022-11-18T09:36:10;19.80;;;16.93;;
14748;SDS011;7466;53.574;9.976;2022-11-18T09:38:38;19.50;;;16.57;;
14748;SDS011;7466;53.574;9.976;2022-11-18T09:41:06;21.63;;;17.67;;
14748;SDS011;7466;53.574;9.976;2022-11-18T09:43:48;19.90;;;17.10;;
14748;SDS011;7466;53.574;9.976;2022-11-18T09:46:26;19.13;;;16.63;;
14748;SDS011;7466;53.574;9.976;2022-11-18T09:49:00;18.83;;;15.83;;
14748;SDS011;7466;53.574;9.976;2022-11-18T09:51:40;17.67;;;14.97;;
14748;SDS011;7466;53.574;9.976;2022-11-18T09:54:09;18.23;;;16.20;;
14748;SDS011;7466;53.574;9.976;2022-11-18T09:56:38;15.40;;;13.00;;
14748;SDS011;7466;53.574;9.976;2022-11-18T09:59:06;17.47;;;15.30;;
14748;SDS011;7466;53.574;9.976;2022-11-18T10:01:35;17.60;;;15.37;;
14748;SDS011;7466;53.574;9.976;2022-11-18T10:04:02;18.07;;;14.53;;
14748;SDS011;7466;53.574;9.976;2022-11-18T10:06:30;16.97;;;15.13;;
14748;SDS011;7466;53.574;9.976;2022-11-18T10:09:03;17.13;;;15.30;;
14748;SDS011;7466;53.574;9.976;2022-11-18T10:11:38;17.27;;;15.33;;
14748;SDS011;7466;53.574;9.976;2022-11-18T10:14:18;17.07;;;15.23;;
14748;SDS011;7466;53.574;9.976;2022-11-18T10:16:57;15.77;;;14.07;;
14748;SDS011;7466;53.574;9.976;2022-11-18T10:19:33;15.80;;;13.83;;
14748;SDS011;7466;53.574;9.976;2022-11-18T10:22:09;17.60;;;13.43;;
14748;SDS011;7466;53.574;9.976;2022-11-18T10:24:48;15.97;;;13.57;;
14748;SDS011;7466;53.574;9.976;2022-11-18T10:27:16;13.93;;;12.50;;
14748;SDS011;7466;53.574;9.976;2022-11-18T10:29:43;13.67;;;12.37;;
14748;SDS011;7466;53.574;9.976;2022-11-18T10:32:17;13.23;;;12.03;;
14748;SDS011;7466;53.574;9.976;2022-11-18T10:34:45;15.60;;;12.40;;
14748;SDS011;7466;53.574;9.976;2022-11-18T10:37:20;12.63;;;11.40;;
14748;SDS011;7466;53.574;9.976;2022-11-18T10:39:51;13.57;;;12.30;;
14748;SDS011;7466;53.574;9.976;2022-11-18T10:42:21;13.80;;;12.47;;
14748;SDS011;7466;53.574;9.976;2022-11-18T10:44:53;13.20;;;11.97;;
14748;SDS011;7466;53.574;9.976;2022-11-18T10:47:24;13.20;;;10.60;;
14748;SDS011;7466;53.574;9.976;2022-11-18T10:49:54;12.97;;;10.73;;
14748;SDS011;7466;53.574;9.976;2022-11-18T10:52:22;11.07;;;10.07;;
14748;SDS011;7466;53.574;9.976;2022-11-18T10:55:18;8.83;;;8.00;;
14748;SDS011;7466;53.574;9.976;2022-11-18T10:57:47;10.97;;;9.87;;
14748;SDS011;7466;53.574;9.976;2022-11-18T11:00:37;10.73;;;8.97;;
14748;SDS011;7466;53.574;9.976;2022-11-18T11:09:08;9.10;;;8.33;;
14748;SDS011;7466;53.574;9.976;2022-11-18T11:11:56;8.93;;;8.23;;
14748;SDS011;7466;53.574;9.976;2022-11-18T11:14:26;8.93;;;8.13;;
14748;SDS011;7466;53.574;9.976;2022-11-18T11:16:58;9.50;;;8.70;;
14748;SDS011;7466;53.574;9.976;2022-11-18T11:19:32;8.03;;;7.23;;
14748;SDS011;7466;53.574;9.976;2022-11-18T11:22:11;8.73;;;8.03;;
14748;SDS011;7466;53.574;9.976;2022-11-18T11:24:38;9.17;;;8.37;;
14748;SDS011;7466;53.574;9.976;2022-11-18T11:27:09;9.70;;;8.80;;
14748;SDS011;7466;53.574;9.976;2022-11-18T11:29:50;8.63;;;7.83;;
14748;SDS011;7466;53.574;9.976;2022-11-18T11:32:28;9.57;;;8.60;;
14748;SDS011;7466;53.574;9.976;2022-11-18T11:35:01;9.27;;;8.20;;
14748;SDS011;7466;53.574;9.976;2022-11-18T11:37:40;8.90;;;8.00;;
14748;SDS011;7466;53.574;9.976;2022-11-18T11:40:20;8.70;;;7.93;;
14748;SDS011;7466;53.574;9.976;2022-11-18T11:42:57;7.93;;;7.33;;
14748;SDS011;7466;53.574;9.976;2022-11-18T11:45:34;9.03;;;8.17;;
14748;SDS011;7466;53.574;9.976;2022-11-18T11:48:14;7.67;;;6.97;;
14748;SDS011;7466;53.574;9.976;2022-11-18T11:50:51;9.20;;;8.33;;
14748;SDS011;7466;53.574;9.976;2022-11-18T11:53:23;9.87;;;7.53;;
14748;SDS011;7466;53.574;9.976;2022-11-18T11:56:06;9.90;;;7.40;;
14748;SDS011;7466;53.574;9.976;2022-11-18T11:58:49;10.63;;;8.53;;
14748;SDS011;7466;53.574;9.976;2022-11-18T12:01:26;10.87;;;7.23;;
14748;SDS011;7466;53.574;9.976;2022-11-18T12:04:02;8.80;;;7.97;;
14748;SDS011;7466;53.574;9.976;2022-11-18T12:06:40;11.00;;;8.83;;
14748;SDS011;7466;53.574;9.976;2022-11-18T12:09:12;9.30;;;8.37;;
14748;SDS011;7466;53.574;9.976;2022-11-18T12:11:47;9.53;;;8.53;;
14748;SDS011;7466;53.574;9.976;2022-11-18T12:14:24;11.20;;;9.50;;
14748;SDS011;7466;53.574;9.976;2022-11-18T12:16:56;9.33;;;8.37;;
14748;SDS011;7466;53.574;9.976;2022-11-18T12:19:29;11.00;;;9.20;;
14748;SDS011;7466;53.574;9.976;2022-11-18T12:21:57;9.70;;;7.73;;
14748;SDS011;7466;53.574;9.976;2022-11-18T12:27:13;11.33;;;9.40;;
14748;SDS011;7466;53.574;9.976;2022-11-18T12:30:01;10.07;;;8.87;;
14748;SDS011;7466;53.574;9.976;2022-11-18T12:32:30;9.90;;;8.50;;
14748;SDS011;7466;53.574;9.976;2022-11-18T12:35:01;12.83;;;8.97;;
14748;SDS011;7466;53.574;9.976;2022-11-18T12:37:38;9.57;;;7.97;;
14748;SDS011;7466;53.574;9.976;2022-11-18T12:40:11;9.83;;;8.37;;
14748;SDS011;7466;53.574;9.976;2022-11-18T12:42:57;8.83;;;7.90;;
14748;SDS011;7466;53.574;9.976;2022-11-18T12:45:48;8.37;;;7.57;;
14748;SDS011;7466;53.574;9.976;2022-11-18T12:48:30;13.30;;;8.30;;
14748;SDS011;7466;53.574;9.976;2022-11-18T12:50:59;9.07;;;8.23;;
14748;SDS011;7466;53.574;9.976;2022-11-18T12:53:34;8.60;;;7.70;;
14748;SDS011;7466;53.574;9.976;2022-11-18T12:56:10;8.83;;;7.83;;
14748;SDS011;7466;53.574;9.976;2022-11-18T12:58:47;7.83;;;7.13;;
14748;SDS011;7466;53.574;9.976;2022-11-18T13:01:18;7.73;;;7.03;;
14748;SDS011;7466;53.574;9.976;2022-11-18T13:03:46;9.60;;;7.47;;
14748;SDS011;7466;53.574;9.976;2022-11-18T13:06:19;8.47;;;7.33;;
14748;SDS011;7466;53.574;9.976;2022-11-18T13:08:52;8.27;;;7.23;;
14748;SDS011;7466;53.574;9.976;2022-11-18T13:11:21;8.43;;;7.10;;
14748;SDS011;7466;53.574;9.976;2022-11-18T13:14:11;9.30;;;7.17;;
14748;SDS011;7466;53.574;9.976;2022-11-18T13:17:00;7.03;;;6.33;;
14748;SDS011;7466;53.574;9.976;2022-11-18T13:19:54;7.07;;;6.37;;
14748;SDS011;7466;53.574;9.976;2022-11-18T13:22:22;7.27;;;6.20;;
14748;SDS011;7466;53.574;9.976;2022-11-18T13:25:20;6.27;;;5.70;;
14748;SDS011;7466;53.574;9.976;2022-11-18T13:27:51;6.90;;;5.77;;
14748;SDS011;7466;53.574;9.976;2022-11-18T13:30:26;6.87;;;5.63;;
14748;SDS011;7466;53.574;9.976;2022-11-18T13:32:57;6.40;;;5.80;;
14748;SDS011;7466;53.574;9.976;2022-11-18T13:35:24;5.80;;;5.07;;
14748;SDS011;7466;53.574;9.976;2022-11-18T13:37:53;5.53;;;5.03;;
14748;SDS011;7466;53.574;9.976;2022-11-18T13:40:23;5.67;;;5.17;;
14748;SDS011;7466;53.574;9.976;2022-11-18T13:42:51;5.40;;;4.37;;
14748;SDS011;7466;53.574;9.976;2022-11-18T13:45:17;5.60;;;4.83;;
14748;SDS011;7466;53.574;9.976;2022-11-18T13:47:45;5.10;;;4.60;;
14748;SDS011;7466;53.574;9.976;2022-11-18T13:50:17;5.40;;;4.90;;
14748;SDS011;7466;53.574;9.976;2022-11-18T13:52:51;4.53;;;4.20;;
14748;SDS011;7466;53.574;9.976;2022-11-18T13:55:26;4.23;;;3.93;;
14748;SDS011;7466;53.574;9.976;2022-11-18T13:57:57;4.70;;;4.30;;
14748;SDS011;7466;53.574;9.976;2022-11-18T14:00:28;4.60;;;4.20;;
14748;SDS011;7466;53.574;9.976;2022-11-18T14:02:57;4.90;;;4.07;;
14748;SDS011;7466;53.574;9.976;2022-11-18T14:05:27;4.77;;;4.37;;
14748;SDS011;7466;53.574;9.976;2022-11-18T14:07:56;5.03;;;4.53;;
14748;SDS011;7466;53.574;9.976;2022-11-18T14:10:30;4.87;;;4.13;;
14748;SDS011;7466;53.574;9.976;2022-11-18T14:12:58;6.30;;;3.63;;
14748;SDS011;7466;53.574;9.976;2022-11-18T14:15:34;4.50;;;4.10;;
14748;SDS011;7466;53.574;9.976;2022-11-18T14:18:02;4.40;;;4.07;;
14748;SDS011;7466;53.574;9.976;2022-11-18T14:20:30;3.97;;;3.67;;
14748;SDS011;7466;53.574;9.976;2022-11-18T14:22:57;4.20;;;3.90;;
14748;SDS011;7466;53.574;9.976;2022-11-18T14:25:27;4.57;;;4.13;;
14748;SDS011;7466;53.574;9.976;2022-11-18T14:27:56;5.17;;;4.23;;
14748;SDS011;7466;53.574;9.976;2022-11-18T14:30:35;4.03;;;3.73;;
14748;SDS011;7466;53.574;9.976;2022-11-18T14:33:14;4.20;;;3.80;;
14748;SDS011;7466;53.574;9.976;2022-11-18T14:35:46;4.27;;;3.80;;
14748;SDS011;7466;53.574;9.976;2022-11-18T14:38:16;6.23;;;3.80;;
14748;SDS011;7466;53.574;9.976;2022-11-18T14:40:44;4.27;;;3.90;;
14748;SDS011;7466;53.574;9.976;2022-11-18T14:43:11;3.63;;;3.40;;
14748;SDS011;7466;53.574;9.976;2022-11-18T14:45:39;4.50;;;4.10;;
14748;SDS011;7466;53.574;9.976;2022-11-18T14:48:06;6.90;;;3.90;;
14748;SDS011;7466;53.574;9.976;2022-11-18T14:50:35;5.43;;;3.80;;
14748;SDS011;7466;53.574;9.976;2022-11-18T14:53:03;4.40;;;4.00;;
14748;SDS011;7466;53.574;9.976;2022-11-18T14:55:30;4.50;;;4.17;;
14748;SDS011;7466;53.574;9.976;2022-11-18T14:57:56;4.90;;;4.03;;
14748;SDS011;7466;53.574;9.976;2022-11-18T15:00:23;3.97;;;3.57;;
14748;SDS011;7466;53.574;9.976;2022-11-18T15:02:50;4.53;;;4.13;;
14748;SDS011;7466;53.574;9.976;2022-11-18T15:05:16;4.57;;;4.17;;
14748;SDS011;7466;53.574;9.976;2022-11-18T15:07:43;4.87;;;4.47;;
14748;SDS011;7466;53.574;9.976;2022-11-18T15:10:11;5.17;;;4.67;;
14748;SDS011;7466;53.574;9.976;2022-11-18T15:12:40;4.97;;;4.57;;